Time;durP1;ratioP1;P1;durP2;ratioP2;P2;SDS_P1;SDS_P2;PMS_P1;PMS_P2;Temp;Humidity;BMP_temperature;BMP_pressure;BME280_temperature;BME280_humidity;BME280_pressure;Samples;Min_cycle;Max_cycle;Signal;HPM_P1;HPM_P2
2022/12/21 04:01:34;;;;;;;3.90;2.13;;;10.20;90.10;;;;;;5715692;23;20544;-75
2022/12/21 04:04:06;;;;;;;2.23;1.33;;;10.20;90.10;;;;;;5014046;28;20490;-75
2022/12/21 04:06:35;;;;;;;3.10;1.83;;;10.10;90.30;;;;;;5014027;28;20433;-75
2022/12/21 04:09:03;;;;;;;3.70;1.83;;;10.20;90.30;;;;;;5014032;28;20514;-75
2022/12/21 04:14:21;;;;;;;2.73;1.50;;;10.10;90.90;;;;;;5014583;28;20416;-75
2022/12/21 04:16:49;;;;;;;1.90;1.23;;;10.10;91.00;;;;;;5013554;28;20953;-75
2022/12/21 04:22:00;;;;;;;3.50;1.47;;;9.90;91.60;;;;;;5013939;28;20452;-74
2022/12/21 04:29:52;;;;;;;2.10;1.50;;;10.10;91.50;;;;;;4981168;28;20780;-75
2022/12/21 04:32:20;;;;;;;2.03;1.53;;;10.10;90.90;;;;;;5013263;28;20490;-75
2022/12/21 04:34:47;;;;;;;2.20;1.60;;;10.00;91.20;;;;;;5013536;28;20455;-75
2022/12/21 04:37:31;;;;;;;2.57;1.43;;;9.80;91.60;;;;;;5014066;28;20448;-75
2022/12/21 04:39:58;;;;;;;2.10;1.50;;;9.90;91.90;;;;;;5013529;28;20429;-75
2022/12/21 04:42:25;;;;;;;2.20;1.43;;;9.90;92.20;;;;;;5013490;28;20895;-75
2022/12/21 04:44:52;;;;;;;3.00;1.77;;;9.90;92.20;;;;;;5013434;28;20498;-75
2022/12/21 04:47:20;;;;;;;3.07;1.90;;;9.90;92.20;;;;;;5013401;28;20447;-75
2022/12/21 04:49:47;;;;;;;2.97;1.67;;;9.80;92.20;;;;;;5013392;28;20510;-75
2022/12/21 04:52:13;;;;;;;2.90;1.70;;;9.80;92.30;;;;;;5013299;28;20496;-75
2022/12/21 04:54:40;;;;;;;2.47;1.47;;;9.90;92.60;;;;;;5013417;28;20449;-75
2022/12/21 04:57:06;;;;;;;2.03;1.40;;;9.90;92.20;;;;;;5013404;28;20487;-73
2022/12/21 04:59:33;;;;;;;2.00;1.40;;;9.80;92.20;;;;;;5013182;28;20444;-75
2022/12/21 05:02:00;;;;;;;2.20;1.50;;;9.90;92.30;;;;;;5013124;28;20480;-75
2022/12/21 05:04:28;;;;;;;2.30;1.70;;;9.90;92.10;;;;;;5013314;28;20448;-74
2022/12/21 05:06:55;;;;;;;2.83;1.90;;;9.90;92.10;;;;;;5013277;28;20444;-75
2022/12/21 05:09:22;;;;;;;2.07;1.43;;;9.90;92.20;;;;;;5014183;28;20535;-75
2022/12/21 05:11:49;;;;;;;1.90;1.30;;;9.90;92.20;;;;;;5016924;28;20484;-75
2022/12/21 05:14:15;;;;;;;2.80;1.77;;;10.00;92.20;;;;;;5016991;28;20444;-75
2022/12/21 05:16:42;;;;;;;2.63;1.60;;;10.00;92.10;;;;;;5016950;28;20452;-75
2022/12/21 05:19:09;;;;;;;3.73;1.67;;;10.00;92.10;;;;;;5016853;28;20448;-75
2022/12/21 05:21:37;;;;;;;2.50;1.40;;;9.90;92.40;;;;;;5016813;28;20468;-75
2022/12/21 05:24:04;;;;;;;2.13;1.53;;;10.00;92.40;;;;;;5016876;28;20448;-75
2022/12/21 05:26:31;;;;;;;2.40;1.40;;;10.00;92.30;;;;;;5016730;28;20452;-75
2022/12/21 05:28:57;;;;;;;2.30;1.53;;;10.00;92.30;;;;;;5016393;28;20968;-75
2022/12/21 05:31:24;;;;;;;3.30;1.63;;;10.00;92.20;;;;;;5016168;28;21050;-75
2022/12/21 05:33:52;;;;;;;2.20;1.47;;;10.00;92.60;;;;;;5016736;28;20467;-75
2022/12/21 05:36:19;;;;;;;1.90;1.27;;;10.10;92.40;;;;;;5016287;28;20938;-75
2022/12/21 05:38:47;;;;;;;1.90;1.30;;;10.20;91.90;;;;;;5016164;28;20867;-75
2022/12/21 05:41:14;;;;;;;3.10;1.60;;;10.30;91.60;;;;;;5016448;28;20471;-75
2022/12/21 05:43:40;;;;;;;2.50;2.00;;;10.30;91.50;;;;;;5016383;28;20448;-75
2022/12/21 05:46:09;;;;;;;2.53;1.63;;;10.30;91.60;;;;;;5016951;28;20448;-75
2022/12/21 05:48:37;;;;;;;3.43;1.50;;;10.40;91.40;;;;;;5016418;28;20495;-75
2022/12/21 05:51:07;;;;;;;2.57;1.40;;;10.50;91.40;;;;;;5016001;28;20984;-75
2022/12/21 05:53:34;;;;;;;3.47;1.60;;;10.40;91.10;;;;;;5016354;28;20564;-75
2022/12/21 05:56:02;;;;;;;2.07;1.63;;;10.40;91.50;;;;;;5016300;28;20452;-75
2022/12/21 05:58:28;;;;;;;2.63;1.50;;;10.40;91.70;;;;;;5016266;28;20449;-75
2022/12/21 06:00:55;;;;;;;2.13;1.30;;;10.50;91.70;;;;;;5016040;28;20484;-75
2022/12/21 06:03:22;;;;;;;2.40;1.30;;;10.50;91.50;;;;;;5015907;28;20472;-75
2022/12/21 06:05:48;;;;;;;2.80;1.43;;;10.40;91.50;;;;;;5016086;28;20448;-75
2022/12/21 06:08:15;;;;;;;1.70;1.00;;;10.40;91.90;;;;;;5016071;28;20503;-75
2022/12/21 06:10:42;;;;;;;1.97;1.20;;;10.30;92.20;;;;;;5016118;28;20519;-75
2022/12/21 06:13:10;;;;;;;2.57;1.47;;;10.30;92.60;;;;;;5015953;28;20530;-75
2022/12/21 06:15:36;;;;;;;2.30;1.53;;;10.40;92.80;;;;;;5015914;28;20448;-75
2022/12/21 06:18:04;;;;;;;4.13;1.60;;;10.40;92.30;;;;;;5015905;28;20448;-75
2022/12/21 06:20:31;;;;;;;3.07;1.53;;;10.40;92.40;;;;;;5015361;28;20502;-75
2022/12/21 06:22:58;;;;;;;2.00;1.47;;;10.40;92.50;;;;;;5015517;28;20448;-75
2022/12/21 06:25:24;;;;;;;2.50;1.60;;;10.30;92.90;;;;;;5015755;28;20572;-75
2022/12/21 06:27:51;;;;;;;2.20;1.40;;;10.30;92.60;;;;;;5015703;28;20451;-75
2022/12/21 06:30:19;;;;;;;2.57;1.37;;;10.40;92.70;;;;;;5015742;28;20453;-75
2022/12/21 06:32:46;;;;;;;2.50;1.93;;;10.40;92.90;;;;;;5019531;28;20476;-72
2022/12/21 06:35:12;;;;;;;2.37;1.37;;;10.40;93.00;;;;;;5018949;28;20448;-72
2022/12/21 06:37:39;;;;;;;2.10;1.33;;;10.50;92.70;;;;;;5021365;28;20495;-72
2022/12/21 06:40:07;;;;;;;2.23;1.40;;;10.60;92.40;;;;;;5024791;28;20444;-72
2022/12/21 06:42:34;;;;;;;2.40;1.23;;;10.70;92.10;;;;;;5028129;28;20475;-73
2022/12/21 06:45:01;;;;;;;2.30;1.50;;;10.70;91.70;;;;;;5030079;28;20480;-73
2022/12/21 06:47:29;;;;;;;2.63;1.20;;;10.50;92.20;;;;;;5028026;28;20475;-73
2022/12/21 06:49:55;;;;;;;2.13;1.17;;;10.60;92.40;;;;;;5014988;28;20813;-74
2022/12/21 06:52:22;;;;;;;3.30;1.53;;;10.50;92.40;;;;;;5014817;28;20828;-73
2022/12/21 06:54:49;;;;;;;2.50;1.50;;;10.30;93.00;;;;;;5015192;28;20448;-74
2022/12/21 06:57:15;;;;;;;1.90;1.30;;;10.30;93.70;;;;;;5015066;28;20576;-73
2022/12/21 06:59:42;;;;;;;2.10;1.33;;;10.30;93.50;;;;;;5015098;28;20448;-73
2022/12/21 07:02:10;;;;;;;2.90;1.23;;;10.20;93.70;;;;;;5014858;28;20484;-74
2022/12/21 07:04:38;;;;;;;2.87;1.50;;;10.20;94.00;;;;;;5014930;28;20498;-74
2022/12/21 07:07:04;;;;;;;2.23;1.43;;;10.10;94.30;;;;;;5014954;28;20436;-74
2022/12/21 07:09:31;;;;;;;2.20;1.20;;;10.20;94.30;;;;;;5015032;28;20598;-74
2022/12/21 07:11:58;;;;;;;1.70;1.03;;;10.30;93.90;;;;;;5014735;28;20518;-74
2022/12/21 07:14:25;;;;;;;1.67;1.00;;;10.30;93.70;;;;;;5014986;28;20453;-74
2022/12/21 07:16:52;;;;;;;2.70;1.40;;;10.30;93.40;;;;;;5015200;28;20452;-74
2022/12/21 07:19:18;;;;;;;2.40;1.43;;;10.20;93.90;;;;;;5026316;28;20436;-73
2022/12/21 07:21:46;;;;;;;1.90;1.20;;;10.20;94.10;;;;;;5019587;28;20468;-73
2022/12/21 07:24:13;;;;;;;4.77;3.00;;;10.30;94.30;;;;;;5014804;28;20449;-74
2022/12/21 07:26:40;;;;;;;1.90;1.30;;;10.30;93.80;;;;;;5014275;28;20551;-72
2022/12/21 07:29:06;;;;;;;3.30;1.20;;;10.30;93.80;;;;;;5014219;28;20808;-72
2022/12/21 07:31:34;;;;;;;1.77;1.17;;;10.30;93.80;;;;;;5013596;28;20848;-72
2022/12/21 07:34:01;;;;;;;3.73;1.83;;;10.30;93.90;;;;;;5013791;28;21067;-73
2022/12/21 07:36:27;;;;;;;1.93;1.30;;;10.30;94.10;;;;;;5014399;28;20449;-74
2022/12/21 07:38:56;;;;;;;2.03;1.20;;;10.40;93.80;;;;;;5014355;28;20444;-74
2022/12/21 07:41:23;;;;;;;2.53;1.37;;;10.30;93.90;;;;;;5013898;28;20985;-74
2022/12/21 07:43:50;;;;;;;2.30;1.43;;;10.40;93.90;;;;;;5014267;28;20815;-74
2022/12/21 07:46:17;;;;;;;2.17;1.40;;;10.40;93.50;;;;;;5014327;28;20531;-74
2022/12/21 07:48:44;;;;;;;2.13;1.47;;;10.40;93.70;;;;;;5014263;28;20476;-74
2022/12/21 07:51:10;;;;;;;2.10;1.40;;;10.40;93.70;;;;;;5014057;28;20476;-74
2022/12/21 07:53:37;;;;;;;2.00;1.33;;;10.50;93.40;;;;;;5014094;28;20476;-75
2022/12/21 07:56:07;;;;;;;2.40;1.17;;;10.40;93.20;;;;;;5014108;28;20452;-73
2022/12/21 07:58:34;;;;;;;2.97;1.57;;;10.30;93.70;;;;;;5014370;28;20448;-74
2022/12/21 08:01:05;;;;;;;2.57;1.43;;;10.40;93.90;;;;;;5014414;28;20634;-74
2022/12/21 08:03:32;;;;;;;1.90;1.13;;;10.30;93.70;;;;;;5014101;28;20520;-74
2022/12/21 08:05:58;;;;;;;2.23;1.33;;;10.30;93.70;;;;;;5013929;28;20487;-74
2022/12/21 08:08:25;;;;;;;2.50;1.23;;;10.30;93.80;;;;;;5013957;28;20448;-75
2022/12/21 08:10:52;;;;;;;1.97;1.20;;;10.30;94.20;;;;;;5014311;28;20690;-74
2022/12/21 08:13:20;;;;;;;2.00;1.17;;;10.20;93.80;;;;;;5014090;28;20539;-75
2022/12/21 08:15:46;;;;;;;2.60;1.40;;;10.20;94.00;;;;;;5013499;28;20845;-73
2022/12/21 08:18:13;;;;;;;2.47;1.37;;;10.20;94.20;;;;;;5013526;28;20448;-74
2022/12/21 08:20:43;;;;;;;2.37;1.50;;;10.10;94.30;;;;;;5013736;28;20523;-74
2022/12/21 08:23:10;;;;;;;3.83;1.53;;;10.10;94.40;;;;;;5014576;28;20507;-75
2022/12/21 08:25:36;;;;;;;2.30;1.40;;;10.00;94.60;;;;;;5014083;28;20448;-74
2022/12/21 08:28:03;;;;;;;3.07;1.40;;;10.00;94.50;;;;;;5013781;28;20448;-74
2022/12/21 08:30:31;;;;;;;2.40;1.43;;;10.00;94.50;;;;;;5013284;28;20930;-74
2022/12/21 08:32:58;;;;;;;2.33;1.60;;;10.00;94.40;;;;;;5013549;28;20901;-75
2022/12/21 08:35:25;;;;;;;2.10;1.40;;;10.00;94.70;;;;;;5013768;28;20491;-75
2022/12/21 08:37:53;;;;;;;3.67;1.70;;;10.10;94.60;;;;;;5013524;28;20502;-74
2022/12/21 08:40:20;;;;;;;1.70;1.10;;;10.10;94.20;;;;;;5013536;28;20531;-73
2022/12/21 08:42:47;;;;;;;2.03;1.33;;;10.00;94.20;;;;;;5013547;28;20480;-73
2022/12/21 08:45:14;;;;;;;3.40;1.67;;;10.10;94.40;;;;;;5017547;28;20448;-73
2022/12/21 08:47:42;;;;;;;2.50;1.33;;;10.20;94.20;;;;;;5017619;28;20444;-73
2022/12/21 08:50:09;;;;;;;2.80;1.93;;;10.10;93.90;;;;;;5017975;28;20494;-74
2022/12/21 08:52:35;;;;;;;2.37;1.30;;;10.10;93.90;;;;;;5017290;28;20488;-74
2022/12/21 08:55:02;;;;;;;2.00;1.30;;;10.20;93.80;;;;;;5017359;28;20456;-74
2022/12/21 08:57:29;;;;;;;3.07;1.60;;;10.10;94.00;;;;;;5017646;28;20452;-75
2022/12/21 08:59:55;;;;;;;2.67;1.70;;;10.20;93.40;;;;;;5018506;28;20502;-74
2022/12/21 09:02:22;;;;;;;2.20;1.27;;;10.30;93.50;;;;;;5017689;28;20491;-75
2022/12/21 09:04:50;;;;;;;2.20;1.60;;;10.20;93.20;;;;;;5017518;28;20456;-74
2022/12/21 09:07:17;;;;;;;2.27;1.50;;;10.10;93.40;;;;;;5017528;28;20448;-75
2022/12/21 09:09:44;;;;;;;3.57;1.70;;;10.10;93.70;;;;;;5017333;28;20453;-75
2022/12/21 09:12:11;;;;;;;1.97;1.30;;;10.00;93.80;;;;;;5017388;28;20550;-75
2022/12/21 09:14:38;;;;;;;2.17;1.77;;;10.10;94.10;;;;;;5017324;28;20484;-75
2022/12/21 09:17:04;;;;;;;2.30;1.53;;;10.20;93.50;;;;;;5016578;28;20458;-75
2022/12/21 09:19:31;;;;;;;2.03;1.30;;;10.20;93.40;;;;;;5016845;28;20475;-75
2022/12/21 09:21:59;;;;;;;2.67;1.87;;;10.20;93.40;;;;;;5016531;28;20532;-74
2022/12/21 09:24:26;;;;;;;2.27;1.60;;;10.30;93.00;;;;;;5016910;28;20448;-75
2022/12/21 09:26:52;;;;;;;3.70;1.97;;;10.20;93.20;;;;;;5016803;28;20587;-75
2022/12/21 09:29:22;;;;;;;2.60;1.60;;;10.10;93.50;;;;;;5016790;28;20444;-76
2022/12/21 09:31:50;;;;;;;3.07;1.80;;;10.00;93.70;;;;;;5016628;28;20468;-74
2022/12/21 09:34:17;;;;;;;3.13;1.40;;;10.00;93.90;;;;;;5016930;28;20473;-75
2022/12/21 09:36:44;;;;;;;1.83;1.37;;;10.10;93.90;;;;;;5016651;28;20448;-75
2022/12/21 09:39:12;;;;;;;2.10;1.47;;;10.10;93.80;;;;;;5016342;28;20948;-75
2022/12/21 09:42:03;;;;;;;2.67;1.57;;;10.10;93.70;;;;;;5016511;28;20468;-74
2022/12/21 09:44:53;;;;;;;2.10;1.37;;;10.10;93.00;;;;;;5016657;28;20428;-75
2022/12/21 09:47:26;;;;;;;2.67;1.77;;;10.00;93.80;;;;;;5003179;28;20852;-75
2022/12/21 09:49:58;;;;;;;1.80;1.10;;;10.00;94.20;;;;;;5016110;28;20437;-75
2022/12/21 09:52:28;;;;;;;2.67;1.70;;;10.00;94.20;;;;;;5016406;28;20479;-75
2022/12/21 09:55:01;;;;;;;2.10;1.40;;;10.10;93.80;;;;;;5015456;28;20475;-74
2022/12/21 09:57:33;;;;;;;2.50;1.30;;;10.10;93.80;;;;;;5016441;28;20444;-75
2022/12/21 10:00:01;;;;;;;2.60;2.20;;;10.20;93.80;;;;;;5016228;28;20487;-75
2022/12/21 10:02:47;;;;;;;2.60;1.97;;;10.30;93.60;;;;;;5015840;28;20567;-75
2022/12/21 10:05:32;;;;;;;3.50;2.33;;;10.30;93.20;;;;;;5015802;28;20862;-75
2022/12/21 10:08:35;;;;;;;2.37;1.67;;;10.30;92.90;;;;;;5016056;28;20439;-75
2022/12/21 10:11:10;;;;;;;2.33;1.63;;;10.30;92.70;;;;;;5016099;28;20526;-75
2022/12/21 10:13:45;;;;;;;2.47;1.50;;;10.30;93.20;;;;;;5015714;28;20464;-75
2022/12/21 10:16:23;;;;;;;3.47;2.10;;;10.40;92.80;;;;;;5024746;28;20436;-71
2022/12/21 10:18:59;;;;;;;2.50;1.70;;;10.50;92.90;;;;;;5040521;28;20447;-75
2022/12/21 10:21:38;;;;;;;2.00;1.30;;;10.50;92.40;;;;;;5038269;28;20476;-73
2022/12/21 10:24:13;;;;;;;2.43;1.60;;;10.70;92.80;;;;;;5021723;28;20421;-73
2022/12/21 10:26:41;;;;;;;3.30;1.60;;;10.80;92.20;;;;;;5016470;28;20432;-74
2022/12/21 10:29:16;;;;;;;2.27;1.63;;;10.90;91.20;;;;;;5016584;28;20444;-75
2022/12/21 10:31:45;;;;;;;2.40;1.70;;;10.90;90.80;;;;;;5015644;28;21044;-74
2022/12/21 10:34:16;;;;;;;2.77;1.73;;;11.00;91.40;;;;;;5015710;28;20571;-75
2022/12/21 10:36:44;;;;;;;3.10;1.80;;;11.10;91.50;;;;;;5015775;28;20448;-75
2022/12/21 10:39:15;;;;;;;3.90;1.60;;;11.00;90.60;;;;;;5016231;28;20495;-76
2022/12/21 10:41:48;;;;;;;3.50;1.87;;;11.10;90.60;;;;;;5015584;28;20476;-75
2022/12/21 10:44:15;;;;;;;3.10;1.77;;;11.00;90.00;;;;;;5015196;28;20969;-75
2022/12/21 10:46:41;;;;;;;2.77;1.70;;;11.00;90.90;;;;;;5015352;28;20544;-75
2022/12/21 10:49:17;;;;;;;2.10;1.43;;;11.10;90.50;;;;;;5015186;28;20480;-75
2022/12/21 10:51:44;;;;;;;2.20;1.77;;;11.00;89.90;;;;;;5015416;28;20566;-75
2022/12/21 10:54:11;;;;;;;3.60;2.20;;;11.00;90.10;;;;;;5015170;28;20482;-76
2022/12/21 10:56:46;;;;;;;2.47;1.47;;;11.10;90.40;;;;;;5015159;28;20459;-75
2022/12/21 10:59:21;;;;;;;3.20;2.33;;;11.00;89.70;;;;;;5015562;28;20918;-76
2022/12/21 11:01:48;;;;;;;2.77;2.13;;;11.10;90.10;;;;;;5014721;28;20475;-75
2022/12/21 11:04:18;;;;;;;2.10;1.60;;;11.10;89.70;;;;;;5015448;28;20452;-75
2022/12/21 11:06:59;;;;;;;2.40;1.80;;;11.00;89.70;;;;;;5014974;28;20506;-75
2022/12/21 11:09:40;;;;;;;2.80;1.70;;;11.00;90.00;;;;;;5015075;28;20452;-74
2022/12/21 11:12:19;;;;;;;2.60;1.90;;;10.90;90.40;;;;;;5014629;28;20829;-74
2022/12/21 11:14:46;;;;;;;2.90;2.00;;;10.90;90.10;;;;;;5014541;28;21002;-75
2022/12/21 11:17:19;;;;;;;3.40;1.70;;;11.00;90.70;;;;;;5014756;28;20636;-75
2022/12/21 11:19:45;;;;;;;2.50;1.93;;;11.20;90.00;;;;;;5014726;28;20483;-75
2022/12/21 11:22:15;;;;;;;2.87;2.33;;;11.10;89.70;;;;;;5014564;28;20523;-76
2022/12/21 11:24:44;;;;;;;2.50;2.00;;;11.10;90.00;;;;;;5014714;28;20440;-76
2022/12/21 11:27:23;;;;;;;2.33;1.80;;;11.20;90.00;;;;;;5014800;28;20510;-76
2022/12/21 11:29:52;;;;;;;2.30;1.87;;;11.30;89.60;;;;;;5014424;28;20845;-76
2022/12/21 11:32:21;;;;;;;2.83;1.70;;;11.50;89.60;;;;;;5014387;28;20515;-76
2022/12/21 11:34:51;;;;;;;3.20;1.77;;;11.60;88.90;;;;;;5014110;28;20488;-76
2022/12/21 11:37:26;;;;;;;2.43;1.70;;;11.80;88.40;;;;;;5015448;28;20444;-76
2022/12/21 11:39:56;;;;;;;3.07;1.83;;;12.20;87.80;;;;;;5014964;28;20531;-76
2022/12/21 11:42:26;;;;;;;2.73;2.10;;;12.50;87.60;;;;;;5014386;28;20472;-76
2022/12/21 11:45:08;;;;;;;3.50;1.90;;;12.70;85.90;;;;;;5014681;28;20437;-76
2022/12/21 11:47:44;;;;;;;2.50;1.93;;;12.70;85.20;;;;;;5014341;28;20532;-76
2022/12/21 11:50:20;;;;;;;2.40;1.53;;;12.50;85.30;;;;;;5014108;28;20503;-76
2022/12/21 11:53:11;;;;;;;2.90;2.07;;;12.10;86.70;;;;;;5014000;28;20428;-76
2022/12/21 11:55:53;;;;;;;2.37;1.90;;;11.90;88.20;;;;;;5014015;28;20516;-77
2022/12/21 11:58:36;;;;;;;3.00;1.80;;;12.10;88.40;;;;;;5013982;28;20432;-76
2022/12/21 12:01:09;;;;;;;2.30;1.63;;;12.30;86.90;;;;;;5013658;28;20530;-76
2022/12/21 12:03:51;;;;;;;2.60;2.20;;;12.00;87.20;;;;;;5013864;28;20445;-77
2022/12/21 12:06:41;;;;;;;2.87;2.10;;;11.80;88.00;;;;;;5013881;28;20436;-77
2022/12/21 12:09:21;;;;;;;3.30;2.17;;;11.90;88.50;;;;;;5013741;28;20488;-75
2022/12/21 12:11:58;;;;;;;3.00;2.00;;;11.90;88.10;;;;;;5013668;28;20464;-75
2022/12/21 12:14:39;;;;;;;2.20;1.60;;;12.00;88.20;;;;;;5013671;28;20519;-76
2022/12/21 12:17:18;;;;;;;4.43;1.53;;;11.90;88.10;;;;;;5013692;28;20490;-75
2022/12/21 12:19:53;;;;;;;2.20;1.73;;;12.00;88.10;;;;;;5013372;28;20476;-75
2022/12/21 12:22:29;;;;;;;2.70;1.57;;;12.20;88.30;;;;;;5013578;28;20464;-73
2022/12/21 12:25:28;;;;;;;2.00;1.40;;;12.30;86.90;;;;;;5013581;28;20845;-75
2022/12/21 12:28:12;;;;;;;2.27;1.37;;;12.20;87.00;;;;;;5013684;28;20482;-75
2022/12/21 12:30:52;;;;;;;2.20;1.50;;;12.80;85.70;;;;;;5013401;28;20429;-73
2022/12/21 12:33:31;;;;;;;3.10;1.50;;;12.80;84.70;;;;;;5013504;28;20530;-75
2022/12/21 12:36:09;;;;;;;2.30;1.37;;;12.50;85.30;;;;;;5013485;28;20440;-75
2022/12/21 12:38:48;;;;;;;2.60;1.60;;;12.40;86.40;;;;;;5013471;28;20494;-75
2022/12/21 12:41:29;;;;;;;2.30;1.63;;;12.30;86.60;;;;;;5013345;28;20479;-75
2022/12/21 12:44:01;;;;;;;2.20;1.40;;;12.60;86.70;;;;;;5013390;28;20429;-75
2022/12/21 12:46:55;;;;;;;1.90;1.20;;;12.60;84.90;;;;;;5013375;28;20441;-75
2022/12/21 12:49:40;;;;;;;2.80;1.30;;;12.80;86.10;;;;;;5013107;28;20910;-75
2022/12/21 12:52:21;;;;;;;1.90;1.10;;;14.60;79.80;;;;;;5012912;28;20470;-75
2022/12/21 12:54:58;;;;;;;1.87;1.20;;;15.20;76.20;;;;;;5013180;28;20477;-74
2022/12/21 12:57:32;;;;;;;2.20;1.30;;;14.60;77.90;;;;;;5013222;28;20433;-75
2022/12/21 13:00:04;;;;;;;2.33;1.27;;;14.10;79.40;;;;;;5013515;28;20436;-75
2022/12/21 13:02:43;;;;;;;2.20;1.50;;;13.70;80.80;;;;;;5013003;28;20845;-75
2022/12/21 13:05:24;;;;;;;2.23;1.37;;;13.10;83.00;;;;;;5013292;28;20511;-76
2022/12/21 13:07:57;;;;;;;2.67;1.50;;;12.70;84.10;;;;;;5013643;28;20805;-75
2022/12/21 13:10:33;;;;;;;4.43;1.70;;;12.30;85.60;;;;;;5013802;28;20444;-74
2022/12/21 13:13:07;;;;;;;1.87;1.27;;;12.20;86.50;;;;;;5012831;28;20428;-75
2022/12/21 13:15:41;;;;;;;2.00;1.30;;;12.10;87.00;;;;;;5013035;28;20542;-75
2022/12/21 13:18:14;;;;;;;2.80;1.50;;;12.10;87.20;;;;;;5012959;28;20432;-74
2022/12/21 13:20:43;;;;;;;3.40;1.20;;;12.10;88.40;;;;;;5013571;28;20468;-75
2022/12/21 13:23:18;;;;;;;2.30;1.30;;;12.20;87.60;;;;;;5013047;28;20448;-75
2022/12/21 13:25:51;;;;;;;3.50;1.60;;;12.20;86.90;;;;;;5013071;28;20428;-75
2022/12/21 13:28:22;;;;;;;2.20;1.17;;;12.10;87.10;;;;;;5012950;28;20448;-75
2022/12/21 13:30:51;;;;;;;2.10;1.20;;;12.00;87.70;;;;;;5014394;28;20550;-75
2022/12/21 13:33:21;;;;;;;1.83;1.20;;;11.90;87.80;;;;;;5016588;28;20506;-75
2022/12/21 13:35:54;;;;;;;2.23;1.40;;;11.90;88.10;;;;;;5016465;28;20534;-74
2022/12/21 13:38:26;;;;;;;2.47;1.27;;;12.00;88.20;;;;;;5016629;28;20440;-74
2022/12/21 13:41:00;;;;;;;2.43;1.30;;;12.00;87.60;;;;;;5016417;28;20468;-74
2022/12/21 13:43:35;;;;;;;1.80;1.10;;;12.00;87.60;;;;;;5016393;28;20526;-75
2022/12/21 13:46:05;;;;;;;3.53;1.40;;;12.00;87.90;;;;;;5016047;28;20873;-75
2022/12/21 13:48:37;;;;;;;2.10;1.57;;;12.10;88.00;;;;;;5016334;28;20458;-74
2022/12/21 13:51:28;;;;;;;2.00;1.47;;;12.10;87.90;;;;;;5016196;28;20475;-73
2022/12/21 13:54:06;;;;;;;2.20;1.23;;;12.10;88.30;;;;;;5015813;28;20914;-76
2022/12/21 13:56:47;;;;;;;1.90;1.10;;;13.30;85.70;;;;;;5015888;28;20428;-75
2022/12/21 13:59:18;;;;;;;1.90;1.00;;;15.00;78.30;;;;;;5016148;28;20433;-74
2022/12/21 14:01:51;;;;;;;1.90;1.07;;;16.00;74.20;;;;;;5015690;28;20491;-75
2022/12/21 14:04:24;;;;;;;1.87;0.90;;;16.60;73.10;;;;;;5016007;28;20432;-75
2022/12/21 14:07:22;;;;;;;1.53;0.83;;;16.60;72.20;;;;;;5016067;28;20437;-74
2022/12/21 14:10:02;;;;;;;1.90;1.17;;;16.50;72.60;;;;;;5015895;28;20428;-74
2022/12/21 14:12:44;;;;;;;1.70;1.00;;;16.00;72.90;;;;;;5015793;28;20507;-75
2022/12/21 14:15:35;;;;;;;1.80;1.00;;;15.10;75.50;;;;;;5015726;28;20469;-75
2022/12/21 14:18:09;;;;;;;1.87;1.00;;;14.80;76.80;;;;;;5015868;28;20826;-75
2022/12/21 14:20:38;;;;;;;1.80;0.90;;;14.60;77.70;;;;;;5016841;28;20428;-75
2022/12/21 14:23:13;;;;;;;1.80;0.93;;;14.60;78.00;;;;;;5015866;28;20504;-75
2022/12/21 14:25:44;;;;;;;1.80;0.90;;;14.60;77.50;;;;;;5015573;28;20837;-76
2022/12/21 14:28:19;;;;;;;2.13;1.17;;;14.70;77.90;;;;;;5016037;28;20459;-76
2022/12/21 14:30:49;;;;;;;2.30;1.80;;;14.70;76.90;;;;;;5015486;28;20468;-76
2022/12/21 14:33:21;;;;;;;2.80;1.60;;;14.40;77.50;;;;;;5015529;28;20483;-76
2022/12/21 14:36:30;;;;;;;2.20;1.27;;;14.30;78.00;;;;;;5015447;28;20548;-74
2022/12/21 14:39:35;;;;;;;3.80;1.60;;;14.10;79.20;;;;;;5008667;28;20464;-75
2022/12/21 14:42:35;;;;;;;2.10;1.17;;;14.00;78.90;;;;;;5014824;28;20523;-74
2022/12/21 14:45:18;;;;;;;1.90;0.90;;;14.00;79.00;;;;;;5015329;28;20440;-75
2022/12/21 14:48:01;;;;;;;2.30;1.00;;;13.90;79.20;;;;;;5015205;28;20491;-74
2022/12/21 14:50:59;;;;;;;2.50;1.50;;;13.90;79.20;;;;;;5014791;28;20941;-74
2022/12/21 14:53:37;;;;;;;1.87;1.17;;;13.70;79.70;;;;;;5015197;28;20499;-73
2022/12/21 14:56:08;;;;;;;2.37;1.13;;;13.50;80.30;;;;;;5014988;28;20880;-73
2022/12/21 14:58:37;;;;;;;1.67;0.90;;;13.40;80.60;;;;;;5015174;28;20444;-74
2022/12/21 15:01:32;;;;;;;1.90;1.17;;;13.50;80.60;;;;;;5014616;28;20539;-75
2022/12/21 15:04:01;;;;;;;2.47;1.67;;;13.40;80.40;;;;;;5015016;28;20519;-73
2022/12/21 15:06:33;;;;;;;2.63;1.50;;;13.40;80.30;;;;;;5014891;28;20441;-73
2022/12/21 15:09:25;;;;;;;2.70;1.30;;;13.30;80.80;;;;;;5014848;28;20425;-74
2022/12/21 15:11:55;;;;;;;1.77;1.10;;;13.20;81.30;;;;;;5014742;28;20472;-73
2022/12/21 15:14:28;;;;;;;2.17;1.40;;;13.00;81.50;;;;;;5014679;28;20455;-74
2022/12/21 15:16:58;;;;;;;2.43;1.20;;;12.80;82.50;;;;;;5014621;28;20555;-74
2022/12/21 15:19:48;;;;;;;2.90;1.30;;;12.70;82.60;;;;;;5014407;28;20936;-73
2022/12/21 15:22:28;;;;;;;2.03;1.47;;;12.60;83.10;;;;;;5014534;28;20464;-74
2022/12/21 15:24:58;;;;;;;3.00;1.50;;;12.40;83.50;;;;;;5014941;28;20468;-74
2022/12/21 15:27:28;;;;;;;1.90;1.10;;;12.20;84.20;;;;;;5014910;28;20453;-74
2022/12/21 15:30:00;;;;;;;3.10;1.50;;;12.10;84.80;;;;;;5014389;28;21017;-74
2022/12/21 15:32:32;;;;;;;4.10;1.00;;;12.10;85.00;;;;;;5014452;28;20472;-73
2022/12/21 15:35:05;;;;;;;2.30;1.33;;;12.00;85.10;;;;;;5014343;28;20472;-74
2022/12/21 15:37:37;;;;;;;2.00;1.40;;;12.00;85.10;;;;;;5015485;28;20429;-74
2022/12/21 15:40:06;;;;;;;2.00;1.10;;;11.90;85.40;;;;;;5014420;28;20483;-73
2022/12/21 15:42:38;;;;;;;1.70;1.00;;;11.90;85.70;;;;;;5014435;28;20468;-75
2022/12/21 15:45:14;;;;;;;1.70;1.03;;;11.90;85.50;;;;;;5014347;28;20425;-74
2022/12/21 15:47:47;;;;;;;2.33;1.10;;;11.80;85.90;;;;;;5014156;28;20494;-74
2022/12/21 15:50:17;;;;;;;1.60;0.80;;;11.70;86.30;;;;;;5014135;28;20494;-74
2022/12/21 15:52:54;;;;;;;2.30;1.20;;;11.60;86.70;;;;;;5013489;28;20503;-75
2022/12/21 15:55:22;;;;;;;2.40;1.60;;;11.50;87.30;;;;;;5014174;28;20558;-74
2022/12/21 15:57:54;;;;;;;2.20;1.60;;;11.40;87.50;;;;;;5013969;28;20502;-73
2022/12/21 16:00:23;;;;;;;2.93;1.50;;;11.30;87.60;;;;;;5013981;28;20456;-76
2022/12/21 16:02:53;;;;;;;2.30;1.63;;;11.30;87.80;;;;;;5013498;28;20483;-72
2022/12/21 16:05:24;;;;;;;2.33;1.60;;;11.30;87.70;;;;;;5013915;28;20424;-74
2022/12/21 16:07:52;;;;;;;2.20;1.50;;;11.40;88.30;;;;;;5013965;28;20429;-75
2022/12/21 16:10:25;;;;;;;3.20;1.63;;;11.30;87.40;;;;;;5013501;28;20960;-75
2022/12/21 16:12:56;;;;;;;2.30;1.23;;;11.20;88.00;;;;;;5013577;28;20902;-75
2022/12/21 16:15:31;;;;;;;2.23;1.30;;;11.20;87.80;;;;;;5014384;28;20472;-74
2022/12/21 16:18:15;;;;;;;2.67;1.60;;;11.00;88.40;;;;;;5013722;28;20428;-74
2022/12/21 16:20:44;;;;;;;2.13;1.33;;;11.10;88.40;;;;;;5013510;28;20468;-75
2022/12/21 16:23:18;;;;;;;3.57;1.50;;;11.10;88.10;;;;;;5013631;28;20448;-75
2022/12/21 16:25:47;;;;;;;2.00;1.10;;;11.10;87.90;;;;;;5013701;28;20435;-76
2022/12/21 16:28:19;;;;;;;2.30;1.73;;;11.10;87.80;;;;;;5013708;28;20503;-75
2022/12/21 16:30:59;;;;;;;2.30;1.67;;;11.10;87.90;;;;;;5013553;28;20464;-75
2022/12/21 16:33:26;;;;;;;2.10;1.50;;;11.10;87.80;;;;;;5013717;28;20437;-76
2022/12/21 16:35:59;;;;;;;4.07;1.20;;;11.00;87.90;;;;;;5013653;28;20480;-74
2022/12/21 16:38:32;;;;;;;2.10;1.20;;;11.00;88.30;;;;;;5013928;28;20547;-75
2022/12/21 16:41:01;;;;;;;2.30;1.20;;;11.10;88.00;;;;;;5013302;28;21008;-74
2022/12/21 16:43:27;;;;;;;1.80;1.20;;;11.20;87.90;;;;;;5013893;28;20448;-74
2022/12/21 16:46:02;;;;;;;2.20;1.43;;;11.20;87.20;;;;;;5017136;28;20444;-74
2022/12/21 16:48:46;;;;;;;3.13;1.77;;;11.30;87.20;;;;;;5014046;28;20440;-74
2022/12/21 16:51:40;;;;;;;2.50;1.60;;;11.30;87.00;;;;;;5013212;28;20815;-74
2022/12/21 16:54:17;;;;;;;2.33;1.40;;;11.40;86.80;;;;;;5013860;28;20464;-73
2022/12/21 16:56:48;;;;;;;2.70;1.63;;;11.40;86.70;;;;;;5013204;28;20472;-74
2022/12/21 16:59:20;;;;;;;2.67;2.47;;;11.30;86.50;;;;;;5013396;28;20441;-75
2022/12/21 17:01:49;;;;;;;2.43;1.40;;;11.30;86.60;;;;;;5013189;28;20482;-74
2022/12/21 17:04:19;;;;;;;2.83;1.60;;;11.30;86.60;;;;;;5014437;28;20487;-74
2022/12/21 17:06:50;;;;;;;2.27;1.57;;;11.30;86.50;;;;;;5017184;28;20893;-74
2022/12/21 17:09:22;;;;;;;2.87;1.60;;;11.20;86.50;;;;;;5017459;28;20548;-76
2022/12/21 17:11:53;;;;;;;2.90;1.40;;;11.10;87.00;;;;;;5017326;28;20491;-76
2022/12/21 17:14:20;;;;;;;2.83;1.40;;;11.10;87.10;;;;;;5017320;28;20436;-75
2022/12/21 17:17:00;;;;;;;2.20;1.53;;;11.10;87.30;;;;;;5016944;28;21001;-75
2022/12/21 17:19:27;;;;;;;2.13;1.40;;;11.10;87.00;;;;;;5017163;28;20490;-75
2022/12/21 17:22:00;;;;;;;3.03;1.30;;;11.00;87.30;;;;;;5017915;28;20542;-76
2022/12/21 17:24:32;;;;;;;2.73;1.90;;;11.00;87.30;;;;;;5017588;28;20446;-76